createdAt,value
2022-09-22T00:01:47.485Z,100.00
2022-09-22T00:04:15.109Z,100.00
2022-09-22T00:06:47.694Z,100.00
2022-09-22T00:09:19.359Z,100.00
2022-09-22T00:11:50.402Z,100.00
2022-09-22T00:14:21.567Z,100.00
2022-09-22T00:16:56.599Z,100.00
2022-09-22T00:19:28.053Z,100.00
2022-09-22T00:21:56.090Z,100.00
2022-09-22T00:24:26.229Z,100.00
2022-09-22T00:26:57.487Z,100.00
2022-09-22T00:29:27.365Z,100.00
2022-09-22T00:31:55.848Z,100.00
2022-09-22T00:34:26.069Z,100.00
2022-09-22T00:36:54.329Z,100.00
2022-09-22T00:39:22.235Z,100.00
2022-09-22T00:41:52.130Z,100.00
2022-09-22T00:44:41.955Z,100.00
2022-09-22T00:47:28.948Z,100.00
2022-09-22T00:50:05.345Z,100.00
2022-09-22T00:52:38.818Z,100.00
2022-09-22T00:55:13.027Z,100.00
2022-09-22T00:57:42.787Z,100.00
2022-09-22T01:00:11.993Z,100.00
2022-09-22T01:02:40.756Z,100.00
2022-09-22T01:05:09.309Z,100.00
2022-09-22T01:07:37.520Z,100.00
2022-09-22T01:10:05.297Z,100.00
2022-09-22T01:12:32.880Z,100.00
2022-09-22T01:15:38.551Z,100.00
2022-09-22T01:18:18.359Z,100.00
2022-09-22T01:21:23.639Z,100.00
2022-09-22T01:24:09.027Z,100.00
2022-09-22T01:26:58.067Z,100.00
2022-09-22T01:30:10.139Z,100.00
2022-09-22T01:33:02.259Z,100.00
2022-09-22T01:35:37.974Z,100.00
2022-09-22T01:38:16.585Z,100.00
2022-09-22T01:41:02.398Z,100.00
2022-09-22T01:43:39.458Z,100.00
2022-09-22T01:46:34.400Z,100.00
2022-09-22T01:49:08.359Z,100.00
2022-09-22T01:51:48.659Z,100.00
2022-09-22T01:54:48.071Z,100.00
2022-09-22T01:57:25.889Z,100.00
2022-09-22T01:59:59.990Z,100.00
2022-09-22T02:02:40.573Z,100.00
2022-09-22T02:05:31.865Z,100.00
2022-09-22T02:08:05.316Z,100.00
2022-09-22T02:10:37.073Z,100.00
2022-09-22T02:13:04.617Z,100.00
2022-09-22T02:15:50.932Z,100.00
2022-09-22T02:18:25.298Z,100.00
2022-09-22T02:20:52.841Z,100.00
2022-09-22T02:23:20.408Z,100.00
2022-09-22T02:25:49.598Z,100.00
2022-09-22T02:28:20.386Z,100.00
2022-09-22T02:31:10.486Z,100.00
2022-09-22T02:33:40.535Z,100.00
2022-09-22T02:36:46.750Z,100.00
2022-09-22T02:39:25.906Z,100.00
2022-09-22T02:42:21.125Z,100.00
2022-09-22T02:44:51.348Z,100.00
2022-09-22T02:47:32.586Z,100.00
2022-09-22T02:50:03.011Z,100.00
2022-09-22T02:52:30.479Z,100.00
2022-09-22T02:54:58.527Z,100.00
2022-09-22T02:57:25.970Z,100.00
2022-09-22T02:59:53.399Z,100.00
2022-09-22T03:02:20.846Z,100.00
2022-09-22T03:04:48.489Z,100.00
2022-09-22T03:07:16.058Z,100.00
2022-09-22T03:09:43.761Z,100.00
2022-09-22T03:12:11.408Z,100.00
2022-09-22T03:14:38.851Z,100.00
2022-09-22T03:17:06.339Z,100.00
2022-09-22T03:19:33.777Z,100.00
2022-09-22T03:22:01.279Z,100.00
2022-09-22T03:24:28.747Z,100.00
2022-09-22T03:26:56.199Z,100.00
2022-09-22T03:29:23.589Z,100.00
2022-09-22T03:31:50.995Z,100.00
2022-09-22T03:34:18.430Z,100.00
2022-09-22T03:36:45.872Z,100.00
2022-09-22T03:39:13.365Z,100.00
2022-09-22T03:41:41.230Z,100.00
2022-09-22T03:44:09.280Z,100.00
2022-09-22T03:46:36.672Z,100.00
2022-09-22T03:49:04.271Z,100.00
2022-09-22T03:51:31.767Z,100.00
2022-09-22T03:53:59.392Z,100.00
2022-09-22T03:56:26.939Z,100.00
2022-09-22T03:58:54.806Z,100.00
2022-09-22T04:01:22.405Z,100.00
2022-09-22T04:03:49.940Z,100.00
2022-09-22T04:06:17.423Z,100.00
2022-09-22T04:08:44.979Z,100.00
2022-09-22T04:11:12.359Z,100.00
2022-09-22T04:13:45.967Z,100.00
2022-09-22T04:16:13.899Z,100.00
2022-09-22T04:18:41.380Z,100.00
2022-09-22T04:21:09.390Z,100.00
2022-09-22T04:23:37.198Z,100.00
2022-09-22T04:26:05.299Z,100.00
2022-09-22T04:28:32.849Z,100.00
2022-09-22T04:31:00.349Z,100.00
2022-09-22T04:33:27.845Z,100.00
2022-09-22T04:35:55.519Z,100.00
2022-09-22T04:38:23.095Z,100.00
2022-09-22T04:40:52.748Z,100.00
2022-09-22T04:43:20.298Z,100.00
2022-09-22T04:45:48.962Z,100.00
2022-09-22T04:48:16.988Z,100.00
2022-09-22T04:50:48.086Z,100.00
2022-09-22T04:53:16.308Z,100.00
2022-09-22T04:55:43.730Z,100.00
2022-09-22T04:58:11.459Z,100.00
2022-09-22T05:00:38.948Z,100.00
2022-09-22T05:03:12.348Z,100.00
2022-09-22T05:05:40.200Z,100.00
2022-09-22T05:08:07.827Z,100.00
2022-09-22T05:10:36.893Z,100.00
2022-09-22T05:13:04.749Z,100.00
2022-09-22T05:15:34.754Z,100.00
2022-09-22T05:18:02.415Z,100.00
2022-09-22T05:20:30.049Z,100.00
2022-09-22T05:22:57.595Z,100.00
2022-09-22T05:25:25.259Z,100.00
2022-09-22T05:27:54.829Z,100.00
2022-09-22T05:30:24.659Z,100.00
2022-09-22T05:32:53.009Z,100.00
2022-09-22T05:35:23.080Z,100.00
2022-09-22T05:37:51.880Z,100.00
2022-09-22T05:40:20.672Z,100.00
2022-09-22T05:42:50.387Z,100.00
2022-09-22T05:45:19.471Z,100.00
2022-09-22T05:47:47.455Z,100.00
2022-09-22T05:50:16.976Z,100.00
2022-09-22T05:52:44.550Z,100.00
2022-09-22T05:55:13.670Z,100.00
2022-09-22T05:57:41.199Z,100.00
2022-09-22T06:00:10.639Z,100.00
2022-09-22T06:02:43.815Z,100.00
2022-09-22T06:05:11.279Z,100.00
2022-09-22T06:07:38.698Z,100.00
2022-09-22T06:10:06.929Z,100.00
2022-09-22T06:12:34.391Z,100.00
2022-09-22T06:15:01.859Z,100.00
2022-09-22T06:17:29.409Z,100.00
2022-09-22T06:19:56.959Z,100.00
2022-09-22T06:22:25.118Z,100.00
2022-09-22T06:24:52.680Z,100.00
2022-09-22T06:27:20.190Z,100.00
2022-09-22T06:29:47.619Z,100.00
2022-09-22T06:32:15.072Z,100.00
2022-09-22T06:34:47.630Z,100.00
2022-09-22T06:37:16.249Z,100.00
2022-09-22T06:39:43.698Z,100.00
2022-09-22T06:42:11.085Z,100.00
2022-09-22T06:44:39.281Z,100.00
2022-09-22T06:47:08.565Z,100.00
2022-09-22T06:49:36.069Z,100.00
2022-09-22T06:52:03.944Z,100.00
2022-09-22T06:54:31.449Z,100.00
2022-09-22T06:56:58.883Z,100.00
2022-09-22T06:59:26.336Z,97.27
2022-09-22T07:01:53.924Z,96.37
2022-09-22T07:04:23.411Z,89.89
2022-09-22T07:06:50.930Z,97.94
2022-09-22T07:09:18.452Z,94.32
2022-09-22T07:11:47.562Z,89.47
2022-09-22T07:14:15.370Z,100.00
2022-09-22T07:16:43.365Z,100.00
2022-09-22T07:19:10.925Z,95.10
2022-09-22T07:21:38.459Z,92.01
2022-09-22T07:24:08.505Z,100.00
2022-09-22T07:26:39.134Z,100.00
2022-09-22T07:29:13.638Z,100.00
2022-09-22T07:31:42.020Z,100.00
2022-09-22T07:34:09.649Z,100.00
2022-09-22T07:36:41.106Z,100.00
2022-09-22T07:39:11.325Z,100.00
2022-09-22T07:41:43.531Z,100.00
2022-09-22T07:44:31.983Z,100.00
2022-09-22T07:47:00.367Z,100.00
2022-09-22T07:49:28.079Z,100.00
2022-09-22T07:51:57.393Z,100.00
2022-09-22T07:54:26.400Z,100.00
2022-09-22T07:56:58.921Z,100.00
2022-09-22T07:59:27.554Z,100.00
2022-09-22T08:01:55.970Z,100.00
2022-09-22T08:04:23.990Z,100.00
2022-09-22T08:06:55.823Z,100.00
2022-09-22T08:09:25.289Z,100.00
2022-09-22T08:11:53.554Z,100.00
2022-09-22T08:14:23.862Z,100.00
2022-09-22T08:16:53.608Z,100.00
2022-09-22T08:19:23.653Z,100.00
2022-09-22T08:21:54.298Z,100.00
2022-09-22T08:24:23.197Z,100.00
2022-09-22T08:26:53.005Z,100.00
2022-09-22T08:29:21.259Z,100.00
2022-09-22T08:31:49.605Z,95.03
2022-09-22T08:34:18.184Z,92.21
2022-09-22T08:36:48.516Z,100.00
2022-09-22T08:39:17.775Z,100.00
2022-09-22T08:41:48.334Z,100.00
2022-09-22T08:44:23.049Z,100.00
2022-09-22T08:46:52.574Z,100.00
2022-09-22T08:49:44.530Z,100.00
2022-09-22T08:52:23.806Z,100.00
2022-09-22T08:54:51.638Z,100.00
2022-09-22T08:57:56.443Z,100.00
2022-09-22T09:00:29.745Z,100.00
2022-09-22T09:03:03.108Z,100.00
2022-09-22T09:05:50.360Z,100.00
2022-09-22T09:08:35.165Z,100.00
2022-09-22T09:11:14.943Z,100.00
2022-09-22T09:14:05.485Z,100.00
2022-09-22T09:16:37.903Z,100.00
2022-09-22T09:19:17.891Z,100.00
2022-09-22T09:21:52.315Z,100.00
2022-09-22T09:27:30.730Z,100.00
2022-09-22T09:30:32.828Z,100.00
2022-09-22T09:33:02.551Z,100.00
2022-09-22T09:35:48.010Z,100.00
2022-09-22T09:38:17.919Z,100.00
2022-09-22T09:40:56.184Z,100.00
2022-09-22T09:43:25.549Z,100.00
2022-09-22T09:46:34.652Z,100.00
2022-09-22T09:49:17.469Z,100.00
2022-09-22T09:51:48.906Z,100.00
2022-09-22T09:54:18.759Z,100.00
2022-09-22T09:57:10.381Z,100.00
2022-09-22T10:00:01.478Z,100.00
2022-09-22T10:03:05.697Z,100.00
2022-09-22T10:05:37.665Z,100.00
2022-09-22T10:08:20.327Z,100.00
2022-09-22T10:10:48.980Z,100.00
2022-09-22T10:13:30.776Z,100.00
2022-09-22T10:16:06.433Z,100.00
2022-09-22T10:18:40.704Z,100.00
2022-09-22T10:21:15.940Z,100.00
2022-09-22T10:23:46.715Z,100.00
2022-09-22T10:26:15.979Z,100.00
2022-09-22T10:28:43.569Z,100.00
2022-09-22T10:31:26.531Z,100.00
2022-09-22T10:33:59.256Z,100.00
2022-09-22T10:36:30.862Z,100.00
2022-09-22T10:38:59.842Z,100.00
2022-09-22T10:41:35.410Z,100.00
2022-09-22T10:44:38.925Z,100.00
2022-09-22T10:47:06.950Z,100.00
2022-09-22T10:49:40.330Z,100.00
2022-09-22T10:52:17.295Z,100.00
2022-09-22T10:55:11.305Z,100.00
2022-09-22T10:58:18.390Z,100.00
2022-09-22T11:00:47.530Z,100.00
2022-09-22T11:08:00.179Z,100.00
2022-09-22T11:11:03.432Z,100.00
2022-09-22T11:13:57.760Z,93.01
2022-09-22T11:16:45.735Z,100.00
2022-09-22T11:19:39.637Z,97.33
2022-09-22T11:22:22.480Z,93.43
2022-09-22T11:25:07.666Z,85.08
2022-09-22T11:27:41.406Z,89.05
2022-09-22T11:30:20.851Z,94.42
2022-09-22T11:33:10.166Z,76.16
2022-09-22T11:35:46.524Z,72.29
2022-09-22T11:38:20.861Z,65.99
2022-09-22T11:41:06.601Z,69.36
2022-09-22T11:43:47.495Z,69.88
2022-09-22T11:46:38.290Z,68.39
2022-09-22T11:49:09.031Z,72.36
2022-09-22T11:52:00.910Z,67.30
2022-09-22T11:55:01.177Z,65.26
2022-09-22T11:57:37.501Z,64.23
2022-09-22T12:00:07.817Z,63.55
2022-09-22T12:03:12.823Z,75.81
2022-09-22T12:05:53.367Z,77.41
2022-09-22T12:08:24.896Z,81.65
2022-09-22T12:10:52.972Z,77.08
2022-09-22T12:13:24.120Z,90.52
2022-09-22T12:16:13.335Z,80.61
2022-09-22T12:18:49.251Z,87.81
2022-09-22T12:21:22.781Z,83.28
2022-09-22T12:23:52.425Z,81.41
2022-09-22T12:26:32.372Z,84.83
2022-09-22T12:29:19.726Z,82.71
2022-09-22T12:31:49.435Z,81.01
2022-09-22T12:34:29.697Z,74.88
2022-09-22T12:37:10.180Z,82.09
2022-09-22T12:39:43.894Z,69.21
2022-09-22T12:42:22.906Z,59.74
2022-09-22T12:44:55.447Z,62.24
2022-09-22T12:47:41.442Z,69.81
2022-09-22T12:50:35.189Z,67.78
2022-09-22T12:53:06.406Z,67.83
2022-09-22T12:55:41.343Z,71.05
2022-09-22T12:58:32.365Z,65.86
2022-09-22T13:01:29.674Z,71.22
2022-09-22T13:04:26.954Z,79.79
2022-09-22T13:06:57.003Z,88.70
2022-09-22T13:09:28.634Z,89.42
2022-09-22T13:12:14.889Z,93.26
2022-09-22T13:15:06.589Z,86.12
2022-09-22T13:17:41.848Z,87.42
2022-09-22T13:20:33.473Z,86.05
2022-09-22T13:23:14.283Z,88.37
2022-09-22T13:25:44.818Z,86.89
2022-09-22T13:28:16.650Z,81.39
2022-09-22T13:30:46.106Z,83.78
2022-09-22T13:33:28.797Z,88.91
2022-09-22T13:36:17.321Z,92.35
2022-09-22T13:38:53.249Z,96.87
2022-09-22T13:41:27.754Z,100.00
2022-09-22T13:44:08.049Z,94.33
2022-09-22T13:46:45.064Z,89.53
2022-09-22T13:49:36.154Z,92.71
2022-09-22T13:52:12.943Z,98.93
2022-09-22T13:54:41.662Z,90.21
2022-09-22T13:57:22.448Z,95.28
2022-09-22T13:59:52.192Z,90.17
2022-09-22T14:02:31.319Z,86.03
2022-09-22T14:05:03.229Z,83.96
2022-09-22T14:07:38.357Z,88.27
2022-09-22T14:10:19.258Z,83.13
2022-09-22T14:12:47.153Z,84.14
2022-09-22T14:15:47.838Z,80.19
2022-09-22T14:18:26.599Z,76.39
2022-09-22T14:20:57.054Z,80.85
2022-09-22T14:23:24.778Z,77.06
2022-09-22T14:25:52.602Z,85.04
2022-09-22T14:28:25.243Z,83.68
2022-09-22T14:30:53.878Z,81.72
2022-09-22T14:33:25.737Z,84.09
2022-09-22T14:36:06.019Z,91.80
2022-09-22T14:38:44.394Z,93.17
2022-09-22T14:41:36.581Z,88.64
2022-09-22T14:44:35.615Z,95.32
2022-09-22T14:47:24.502Z,100.00
2022-09-22T14:50:10.880Z,97.90
2022-09-22T14:52:57.433Z,96.70
2022-09-22T14:55:31.013Z,99.77
2022-09-22T14:58:05.644Z,100.00
2022-09-22T15:00:52.758Z,100.00
2022-09-22T15:03:29.880Z,100.00
2022-09-22T15:06:07.891Z,100.00
2022-09-22T15:08:36.389Z,96.82
2022-09-22T15:11:04.450Z,100.00
2022-09-22T15:13:43.538Z,100.00
2022-09-22T15:16:40.853Z,94.20
2022-09-22T15:19:13.327Z,96.06
2022-09-22T15:21:51.566Z,98.00
2022-09-22T15:24:27.092Z,94.00
2022-09-22T15:26:57.658Z,100.00
2022-09-22T15:29:25.410Z,98.02
2022-09-22T15:31:53.078Z,94.27
2022-09-22T15:34:20.865Z,96.04
2022-09-22T15:36:50.234Z,93.80
2022-09-22T15:39:23.927Z,96.66
2022-09-22T15:41:53.339Z,93.25
2022-09-22T15:44:21.205Z,88.48
2022-09-22T15:46:54.600Z,90.47
2022-09-22T15:49:26.669Z,89.93
2022-09-22T15:51:56.192Z,91.24
2022-09-22T15:54:24.868Z,91.00
2022-09-22T15:56:55.028Z,90.39
2022-09-22T15:59:26.846Z,91.88
2022-09-22T16:01:57.424Z,94.95
2022-09-22T16:04:32.554Z,95.82
2022-09-22T16:07:04.225Z,93.05
2022-09-22T16:09:32.412Z,94.66
2022-09-22T16:12:00.613Z,94.12
2022-09-22T16:14:28.357Z,96.80
2022-09-22T16:16:56.028Z,100.00
2022-09-22T16:19:23.818Z,99.75
2022-09-22T16:21:56.788Z,94.48
2022-09-22T16:24:28.211Z,95.91
2022-09-22T16:26:56.409Z,94.96
2022-09-22T16:29:25.374Z,93.90
2022-09-22T16:31:53.064Z,94.26
2022-09-22T16:34:21.396Z,95.92
2022-09-22T16:36:49.238Z,97.02
2022-09-22T16:39:17.444Z,96.24
2022-09-22T16:41:46.244Z,98.01
2022-09-22T16:44:14.269Z,99.30
2022-09-22T16:46:42.175Z,100.00
2022-09-22T16:49:13.059Z,100.00
2022-09-22T16:51:49.072Z,100.00
2022-09-22T16:54:18.801Z,100.00
2022-09-22T16:56:51.273Z,97.59
2022-09-22T16:59:20.925Z,95.73
2022-09-22T17:01:49.409Z,95.11
2022-09-22T17:04:19.314Z,95.92
2022-09-22T17:06:47.983Z,96.00
2022-09-22T17:09:17.169Z,96.72
2022-09-22T17:11:48.268Z,98.11
2022-09-22T17:14:21.347Z,98.88
2022-09-22T17:16:52.297Z,99.16
2022-09-22T17:19:22.543Z,100.00
2022-09-22T17:21:55.651Z,100.00
2022-09-22T17:24:25.167Z,99.36
2022-09-22T17:26:55.414Z,98.74
2022-09-22T17:29:25.852Z,99.48
2022-09-22T17:31:57.502Z,100.00
2022-09-22T17:34:28.781Z,100.00
2022-09-22T17:36:58.148Z,100.00
2022-09-22T17:39:27.565Z,100.00
2022-09-22T17:41:55.994Z,100.00
2022-09-22T17:44:28.690Z,100.00
2022-09-22T17:47:15.189Z,100.00
2022-09-22T17:50:01.269Z,100.00
2022-09-22T17:52:31.689Z,100.00
2022-09-22T17:55:09.293Z,100.00
2022-09-22T17:57:40.087Z,100.00
2022-09-22T18:00:11.786Z,100.00
2022-09-22T18:02:39.990Z,100.00
2022-09-22T18:05:12.667Z,100.00
2022-09-22T18:07:41.130Z,100.00
2022-09-22T18:10:14.545Z,100.00
2022-09-22T18:12:42.967Z,100.00
2022-09-22T18:15:13.485Z,100.00
2022-09-22T18:17:43.115Z,100.00
2022-09-22T18:20:18.534Z,100.00
2022-09-22T18:22:48.389Z,100.00
2022-09-22T18:25:19.575Z,100.00
2022-09-22T18:27:48.813Z,100.00
2022-09-22T18:30:17.890Z,100.00
2022-09-22T18:32:46.514Z,100.00
2022-09-22T18:35:14.835Z,100.00
2022-09-22T18:37:43.049Z,100.00
2022-09-22T18:40:12.737Z,100.00
2022-09-22T18:42:44.940Z,100.00
2022-09-22T18:45:14.455Z,100.00
2022-09-22T18:47:43.614Z,100.00
2022-09-22T18:50:12.365Z,100.00
2022-09-22T18:52:43.379Z,100.00
2022-09-22T18:55:18.675Z,100.00
2022-09-22T18:57:49.134Z,100.00
2022-09-22T19:00:17.134Z,100.00
2022-09-22T19:02:46.459Z,100.00
2022-09-22T19:05:14.604Z,100.00
2022-09-22T19:07:44.190Z,100.00
2022-09-22T19:10:15.712Z,100.00
2022-09-22T19:12:43.398Z,100.00
2022-09-22T19:15:18.965Z,100.00
2022-09-22T19:17:49.829Z,100.00
2022-09-22T19:20:24.125Z,100.00
2022-09-22T19:22:54.074Z,100.00
2022-09-22T19:25:22.732Z,100.00
2022-09-22T19:27:52.720Z,100.00
2022-09-22T19:30:23.917Z,100.00
2022-09-22T19:32:53.853Z,100.00
2022-09-22T19:35:21.840Z,100.00
2022-09-22T19:37:52.007Z,100.00
2022-09-22T19:40:25.144Z,100.00
2022-09-22T19:42:54.209Z,100.00
2022-09-22T19:45:24.032Z,100.00
2022-09-22T19:47:54.207Z,100.00
2022-09-22T19:50:22.197Z,100.00
2022-09-22T19:52:50.244Z,100.00
2022-09-22T19:55:21.037Z,100.00
2022-09-22T19:57:50.148Z,100.00
2022-09-22T20:00:18.249Z,100.00
2022-09-22T20:02:46.488Z,100.00
2022-09-22T20:05:19.542Z,100.00
2022-09-22T20:07:48.531Z,100.00
2022-09-22T20:10:19.072Z,100.00
2022-09-22T20:12:46.990Z,100.00
2022-09-22T20:15:15.992Z,100.00
2022-09-22T20:17:48.913Z,100.00
2022-09-22T20:20:25.464Z,100.00
2022-09-22T20:23:00.340Z,100.00
2022-09-22T20:25:31.229Z,100.00
2022-09-22T20:27:59.555Z,100.00
2022-09-22T20:30:27.653Z,100.00
2022-09-22T20:32:55.671Z,100.00
2022-09-22T20:35:23.418Z,100.00
2022-09-22T20:37:57.743Z,100.00
2022-09-22T20:40:26.048Z,100.00
2022-09-22T20:42:57.202Z,100.00
2022-09-22T20:45:25.394Z,100.00
2022-09-22T20:47:53.101Z,100.00
2022-09-22T20:50:21.798Z,100.00
2022-09-22T20:52:49.502Z,100.00
2022-09-22T20:55:17.594Z,100.00
2022-09-22T20:57:45.309Z,100.00
2022-09-22T21:00:15.543Z,100.00
2022-09-22T21:02:43.759Z,100.00
2022-09-22T21:05:11.492Z,100.00
2022-09-22T21:07:39.263Z,100.00
2022-09-22T21:10:25.637Z,100.00
2022-09-22T21:12:56.255Z,100.00
2022-09-22T21:15:24.350Z,100.00
2022-09-22T21:17:53.108Z,100.00
2022-09-22T21:20:21.802Z,100.00
2022-09-22T21:22:49.549Z,100.00
2022-09-22T21:25:17.277Z,100.00
2022-09-22T21:27:45.434Z,100.00
2022-09-22T21:30:13.636Z,100.00
2022-09-22T21:32:41.284Z,100.00
2022-09-22T21:35:09.437Z,100.00
2022-09-22T21:37:37.075Z,100.00
2022-09-22T21:40:05.351Z,100.00
2022-09-22T21:42:33.097Z,100.00
2022-09-22T21:45:01.342Z,100.00
2022-09-22T21:47:29.094Z,100.00
2022-09-22T21:49:56.926Z,100.00
2022-09-22T21:52:24.613Z,100.00
2022-09-22T21:54:52.392Z,100.00
2022-09-22T21:57:20.178Z,100.00
2022-09-22T21:59:47.851Z,100.00
2022-09-22T22:02:15.636Z,100.00
2022-09-22T22:04:44.222Z,100.00
2022-09-22T22:07:12.126Z,100.00
2022-09-22T22:09:39.907Z,100.00
2022-09-22T22:12:07.611Z,100.00
2022-09-22T22:14:35.411Z,100.00
2022-09-22T22:17:03.194Z,100.00
2022-09-22T22:19:31.321Z,100.00
2022-09-22T22:21:59.033Z,100.00
2022-09-22T22:24:39.721Z,100.00
2022-09-22T22:27:10.920Z,100.00
2022-09-22T22:29:39.111Z,100.00
2022-09-22T22:32:09.460Z,100.00
2022-09-22T22:34:37.586Z,100.00
2022-09-22T22:37:09.094Z,100.00
2022-09-22T22:39:36.900Z,100.00
2022-09-22T22:42:04.932Z,100.00
2022-09-22T22:44:32.711Z,100.00
2022-09-22T22:47:00.528Z,100.00
2022-09-22T22:49:28.420Z,100.00
2022-09-22T22:51:56.089Z,100.00
2022-09-22T22:54:23.927Z,100.00
2022-09-22T22:56:51.739Z,100.00
2022-09-22T22:59:19.695Z,100.00
2022-09-22T23:01:47.360Z,100.00
2022-09-22T23:04:16.899Z,100.00
2022-09-22T23:06:44.827Z,100.00
2022-09-22T23:09:16.079Z,100.00
2022-09-22T23:11:46.625Z,100.00
2022-09-22T23:14:16.347Z,100.00
2022-09-22T23:16:47.038Z,100.00
2022-09-22T23:19:17.929Z,100.00
2022-09-22T23:21:46.615Z,100.00
2022-09-22T23:24:16.671Z,100.00
2022-09-22T23:26:45.675Z,100.00
2022-09-22T23:29:13.704Z,100.00
2022-09-22T23:31:42.177Z,100.00
2022-09-22T23:34:09.874Z,100.00
2022-09-22T23:36:37.755Z,100.00
2022-09-22T23:39:05.442Z,100.00
2022-09-22T23:41:35.194Z,100.00
2022-09-22T23:44:06.849Z,100.00
2022-09-22T23:46:35.356Z,100.00
2022-09-22T23:49:03.115Z,100.00
2022-09-22T23:51:31.269Z,100.00
2022-09-22T23:53:59.406Z,100.00
2022-09-22T23:56:27.389Z,100.00
2022-09-22T23:58:55.326Z,100.00
